Cherokee — SVCN2 — position and weather

sailwx.info

Track history (hours):
 
Tides and Currents Weather Stations Pressure Air Temp Water Temp Dewpoint Dewpoint Depression Visibility Wind Speed Wind Dir Waves Ship Positions

Cherokee

Last reported at 2018-Feb-22 02:00 UTC. Time now 2018-Feb-22 09:08 UTC.
Position N 38°56' W 011°30'.

Length 274 m; draft 16.1 m.

Type: Tanker. MMSI: 241473000.

Date/timePositionNaut miles runAvg speedWind from/ knotsBaromVisibWave heightAir tempDewpointWater temp
2018-Feb-22 02:00N 38°56' W 011°30'4611.5
2018-Feb-21 21:59N 38°11' W 011°45'611.4
2018-Feb-21 21:30N 38°05' W 011°47'611.7
2018-Feb-21 21:00N 37°60' W 011°49'611.6
2018-Feb-21 20:30N 37°54' W 011°50'611.6
2018-Feb-21 19:59N 37°48' W 011°52'58111.9
2018-Feb-19 19:21N 28°26' W 014°47'411.9
2018-Feb-19 19:00N 28°23' W 014°48'611.8
2018-Feb-19 18:30N 28°17' W 014°50'612.1
2018-Feb-19 18:00N 28°11' W 014°53'612.2
2018-Feb-19 17:30N 28°06' W 014°56'612.1
2018-Feb-19 17:00N 27°60' W 014°58'612.3
2018-Feb-19 16:29N 27°54' W 015°00'612.3
2018-Feb-19 16:00N 27°48' W 015°02'612.6
2018-Feb-19 15:30N 27°42' W 015°05'612.4
2018-Feb-19 15:00N 27°36' W 015°06'612.3
2018-Feb-19 14:30N 27°31' W 015°08'  
Track history (hours):
 
Tides and Currents Weather Stations Pressure Air Temp Water Temp Dewpoint Dewpoint Depression Visibility Wind Speed Wind Dir Waves Ship Positions

Cherokee

Last reported at 2018-Feb-22 02:00 UTC. Time now 2018-Feb-22 09:08 UTC.
Position N 38°56' W 011°30'.

Length 274 m; draft 16.1 m.

Type: Tanker. MMSI: 241473000.

Date/timePositionNaut miles runAvg speedWind from/ knotsBaromVisibWave heightAir tempDewpointWater temp
2018-Feb-22 02:00N 38°56' W 011°30'4611.5
2018-Feb-21 21:59N 38°11' W 011°45'611.4
2018-Feb-21 21:30N 38°05' W 011°47'611.7
2018-Feb-21 21:00N 37°60' W 011°49'611.6
2018-Feb-21 20:30N 37°54' W 011°50'611.6
2018-Feb-21 19:59N 37°48' W 011°52'58111.9
2018-Feb-19 19:21N 28°26' W 014°47'411.9
2018-Feb-19 19:00N 28°23' W 014°48'611.8
2018-Feb-19 18:30N 28°17' W 014°50'612.1
2018-Feb-19 18:00N 28°11' W 014°53'612.2
2018-Feb-19 17:30N 28°06' W 014°56'612.1
2018-Feb-19 17:00N 27°60' W 014°58'612.3
2018-Feb-19 16:29N 27°54' W 015°00'612.3
2018-Feb-19 16:00N 27°48' W 015°02'612.6
2018-Feb-19 15:30N 27°42' W 015°05'612.4
2018-Feb-19 15:00N 27°36' W 015°06'612.3
2018-Feb-19 14:30N 27°31' W 015°08'  

Dump ship's entire track history